Time;durP1;ratioP1;P1;durP2;ratioP2;P2;SDS_P1;SDS_P2;PMS_P1;PMS_P2;Temp;Humidity;BMP_temperature;BMP_pressure;BME280_temperature;BME280_humidity;BME280_pressure;Samples;Min_cycle;Max_cycle;Signal;HPM_P1;HPM_P2
2024/03/27 00:01:38;;;;;;;4.15;2.30;;;11.50;99.90;;;;;;5016149;28;20026;-91
2024/03/27 00:04:04;;;;;;;9.75;2.08;;;11.50;99.90;;;;;;5017329;28;20025;-91
2024/03/27 00:06:29;;;;;;;6.65;1.40;;;11.50;99.90;;;;;;5015378;28;20433;-92
2024/03/27 00:08:55;;;;;;;4.40;2.20;;;11.50;99.90;;;;;;5016235;28;20041;-92
2024/03/27 00:11:24;;;;;;;4.03;1.80;;;11.50;99.90;;;;;;5029272;28;20490;-91
2024/03/27 00:13:50;;;;;;;5.75;2.03;;;11.40;99.90;;;;;;5014660;28;20080;-94
2024/03/27 00:16:16;;;;;;;7.28;2.22;;;11.40;99.90;;;;;;5033793;28;20028;-93
2024/03/27 00:18:41;;;;;;;3.22;1.90;;;11.40;99.90;;;;;;5043560;28;20029;-93
2024/03/27 00:21:07;;;;;;;3.05;1.75;;;11.40;99.90;;;;;;5036895;28;20026;-93
2024/03/27 00:23:33;;;;;;;4.35;1.92;;;11.40;99.90;;;;;;5031959;28;20137;-93
2024/03/27 00:25:59;;;;;;;3.40;2.17;;;11.40;99.90;;;;;;5014803;28;20108;-92
2024/03/27 00:28:25;;;;;;;4.75;2.60;;;11.40;99.90;;;;;;5015246;28;20491;-95
2024/03/27 00:30:51;;;;;;;3.45;2.00;;;11.40;99.90;;;;;;5015404;28;20034;-93
2024/03/27 00:33:17;;;;;;;6.85;2.15;;;11.40;99.90;;;;;;5031708;28;20056;-93
2024/03/27 00:35:52;;;;;;;6.75;2.50;;;11.40;99.90;;;;;;5035033;28;20025;-94
2024/03/27 00:38:18;;;;;;;3.65;2.20;;;11.60;99.90;;;;;;5044183;28;20033;-94
2024/03/27 00:40:43;;;;;;;4.07;2.22;;;11.40;99.90;;;;;;5036486;28;20022;-94
2024/03/27 00:43:09;;;;;;;3.92;1.88;;;12.00;99.90;;;;;;5046388;28;20115;-94
2024/03/27 00:45:37;;;;;;;4.22;1.92;;;11.40;99.90;;;;;;5043553;28;20032;-94
2024/03/27 00:48:03;;;;;;;3.70;2.00;;;11.40;99.90;;;;;;5037320;28;20049;-94
2024/03/27 00:50:29;;;;;;;8.35;2.28;;;11.40;99.90;;;;;;5021113;28;20022;-93
2024/03/27 00:52:54;;;;;;;2.95;1.55;;;11.50;99.90;;;;;;5030578;28;20096;-95
2024/03/27 00:55:20;;;;;;;3.95;1.88;;;11.50;99.90;;;;;;5035143;28;20023;-94
2024/03/27 00:57:45;;;;;;;5.45;1.65;;;11.50;99.90;;;;;;5035333;28;20045;-95
2024/03/27 01:00:16;;;;;;;4.20;1.90;;;11.50;99.90;;;;;;5036123;28;20043;-94
2024/03/27 01:02:45;;;;;;;3.13;1.30;;;11.50;99.90;;;;;;5038268;28;20100;-93
2024/03/27 01:05:12;;;;;;;7.13;2.00;;;11.50;99.90;;;;;;5041724;28;20022;-94
2024/03/27 01:07:38;;;;;;;3.22;1.55;;;11.50;99.90;;;;;;5040464;28;20030;-95
2024/03/27 01:10:05;;;;;;;3.35;1.58;;;11.50;99.90;;;;;;5036742;28;20033;-95
2024/03/27 01:12:30;;;;;;;3.53;1.33;;;11.50;99.90;;;;;;5035444;28;20057;-94
2024/03/27 01:14:56;;;;;;;4.90;1.50;;;11.60;99.90;;;;;;5018532;28;20034;-94
2024/03/27 01:17:22;;;;;;;2.50;1.60;;;11.70;99.90;;;;;;5054024;28;20032;-95
2024/03/27 01:19:48;;;;;;;6.82;1.55;;;11.60;99.90;;;;;;5056879;28;20498;-93
2024/03/27 01:22:13;;;;;;;4.13;1.45;;;11.60;99.90;;;;;;5052945;28;20052;-94
2024/03/27 01:24:39;;;;;;;3.53;1.60;;;11.60;99.90;;;;;;5055257;28;20036;-94
2024/03/27 01:27:04;;;;;;;7.43;1.95;;;11.70;99.90;;;;;;5053225;28;20032;-94
2024/03/27 01:29:30;;;;;;;2.88;1.58;;;11.60;99.90;;;;;;5030786;28;20397;-94
2024/03/27 01:31:56;;;;;;;2.08;1.42;;;11.70;99.90;;;;;;5022771;28;20033;-94
2024/03/27 01:34:22;;;;;;;5.53;1.40;;;11.70;99.90;;;;;;5033679;28;20033;-93
2024/03/27 01:36:48;;;;;;;5.28;1.27;;;11.70;99.90;;;;;;5042520;28;20028;-92
2024/03/27 01:39:14;;;;;;;2.70;1.30;;;11.70;99.90;;;;;;5043006;28;20171;-94
2024/03/27 01:41:39;;;;;;;5.10;1.65;;;11.70;99.90;;;;;;5036878;28;20029;-94
2024/03/27 01:44:05;;;;;;;3.53;1.58;;;11.70;99.90;;;;;;5033948;28;20049;-95
2024/03/27 01:46:31;;;;;;;3.53;1.42;;;11.70;99.90;;;;;;5033624;28;20022;-95
2024/03/27 01:48:57;;;;;;;3.15;1.50;;;11.70;99.90;;;;;;5033413;28;20071;-94
2024/03/27 01:51:23;;;;;;;5.45;1.77;;;11.70;99.90;;;;;;5026366;28;20059;-94
2024/03/27 01:53:50;;;;;;;3.63;1.80;;;11.70;99.90;;;;;;5017216;28;20048;-95
2024/03/27 01:56:15;;;;;;;5.30;1.23;;;11.70;99.90;;;;;;5031179;28;20397;-95
2024/03/27 01:58:42;;;;;;;6.20;1.85;;;11.70;99.90;;;;;;5038314;28;20100;-94
2024/03/27 02:01:09;;;;;;;2.70;1.38;;;12.30;99.90;;;;;;5039153;28;20022;-94
2024/03/27 02:03:35;;;;;;;3.55;1.42;;;11.70;99.90;;;;;;5029986;28;20084;-94
2024/03/27 02:06:02;;;;;;;2.92;1.70;;;11.70;99.90;;;;;;5029449;28;20033;-93
2024/03/27 02:08:27;;;;;;;2.83;1.30;;;11.60;99.90;;;;;;5022223;28;20109;-93
2024/03/27 02:10:53;;;;;;;3.55;1.40;;;11.70;99.90;;;;;;5021530;28;20157;-92
2024/03/27 02:13:18;;;;;;;3.10;1.27;;;11.70;99.90;;;;;;5025353;28;20045;-93
2024/03/27 02:15:44;;;;;;;2.42;1.27;;;11.60;99.90;;;;;;5020733;28;20059;-94
2024/03/27 02:18:10;;;;;;;4.10;1.30;;;11.60;99.90;;;;;;5016923;28;20478;-94
2024/03/27 02:20:38;;;;;;;4.20;1.60;;;11.60;99.90;;;;;;5029707;28;20026;-93
2024/03/27 02:23:10;;;;;;;4.40;1.23;;;11.30;99.90;;;;;;5036363;28;20046;-92
2024/03/27 02:25:46;;;;;;;1.23;1.10;;;12.10;99.90;;;;;;5036861;28;20036;-95
2024/03/27 02:28:11;;;;;;;3.83;1.30;;;11.60;99.90;;;;;;5036518;28;20393;-93
2024/03/27 02:30:44;;;;;;;5.10;1.55;;;11.60;99.90;;;;;;5046336;28;20017;-93
2024/03/27 02:33:09;;;;;;;4.68;1.45;;;11.60;99.90;;;;;;5049243;28;20053;-94
2024/03/27 02:35:35;;;;;;;2.92;1.30;;;11.50;99.90;;;;;;5024945;28;20097;-95
2024/03/27 02:38:00;;;;;;;2.13;1.63;;;11.50;99.90;;;;;;5020836;28;20027;-94
2024/03/27 02:40:26;;;;;;;3.17;1.20;;;11.50;99.90;;;;;;5040103;28;20462;-94
2024/03/27 02:42:51;;;;;;;5.32;1.42;;;12.10;99.90;;;;;;5037370;28;20450;-95
2024/03/27 02:45:17;;;;;;;4.22;1.50;;;11.50;99.90;;;;;;5037426;28;20469;-95
2024/03/27 02:47:42;;;;;;;4.63;1.63;;;11.50;99.90;;;;;;5037113;28;20089;-95
2024/03/27 02:50:08;;;;;;;4.38;1.60;;;11.50;99.90;;;;;;5036572;28;20403;-94
2024/03/27 02:52:34;;;;;;;5.15;1.30;;;11.50;99.90;;;;;;5050541;28;20021;-94
2024/03/27 02:55:00;;;;;;;2.08;1.42;;;11.50;99.90;;;;;;5058200;28;20025;-95
2024/03/27 02:57:25;;;;;;;3.85;1.88;;;11.50;99.90;;;;;;5058299;28;20037;-95
2024/03/27 02:59:51;;;;;;;3.35;1.42;;;11.50;99.90;;;;;;5057989;28;20026;-95
2024/03/27 03:02:17;;;;;;;6.10;1.42;;;11.50;99.90;;;;;;5059987;28;20085;-94
2024/03/27 03:04:42;;;;;;;4.35;1.75;;;11.50;99.90;;;;;;5051524;28;20010;-93
2024/03/27 03:07:08;;;;;;;3.28;1.35;;;11.50;99.90;;;;;;5035358;28;20022;-94
2024/03/27 03:12:09;;;;;;;6.38;1.88;;;11.50;99.90;;;;;;5245439;23;20105;-94
2024/03/27 03:14:34;;;;;;;4.85;1.85;;;11.70;99.90;;;;;;5026398;28;20025;-93
2024/03/27 03:17:00;;;;;;;2.28;1.58;;;12.70;99.90;;;;;;5017399;28;20036;-94
2024/03/27 03:19:25;;;;;;;3.45;1.67;;;11.50;99.90;;;;;;5017040;28;20519;-93
2024/03/27 03:21:51;;;;;;;2.67;1.50;;;11.50;99.90;;;;;;5014149;28;20366;-94
2024/03/27 03:24:16;;;;;;;4.53;2.08;;;11.50;99.90;;;;;;5019591;28;20237;-95
2024/03/27 03:26:42;;;;;;;5.28;1.50;;;11.50;99.90;;;;;;5033312;28;20053;-94
2024/03/27 03:29:07;;;;;;;2.75;1.45;;;11.50;99.90;;;;;;5042713;28;20021;-95
2024/03/27 03:31:33;;;;;;;3.25;1.70;;;11.50;99.90;;;;;;5038574;28;20030;-94
2024/03/27 03:33:59;;;;;;;2.25;1.40;;;11.50;99.90;;;;;;5018652;28;20041;-94
2024/03/27 03:36:25;;;;;;;6.22;1.52;;;11.50;99.90;;;;;;5017401;28;20077;-94
2024/03/27 03:38:50;;;;;;;6.07;1.83;;;11.50;99.90;;;;;;5016496;28;20030;-95
2024/03/27 03:41:16;;;;;;;4.65;1.88;;;11.50;99.90;;;;;;5034251;28;20022;-94
2024/03/27 03:43:41;;;;;;;3.97;1.60;;;11.50;99.90;;;;;;5028220;28;20033;-94
2024/03/27 03:46:07;;;;;;;4.45;1.70;;;11.50;99.90;;;;;;5007038;28;20114;-94
2024/03/27 03:48:32;;;;;;;5.70;1.80;;;11.40;99.90;;;;;;4996691;28;20454;-95
2024/03/27 03:50:58;;;;;;;4.20;1.70;;;11.50;99.90;;;;;;5013459;28;20034;-95
2024/03/27 03:53:23;;;;;;;3.92;1.58;;;11.40;99.90;;;;;;5032050;28;20064;-94
2024/03/27 03:55:49;;;;;;;2.38;1.60;;;11.40;99.90;;;;;;5018209;28;20018;-94
2024/03/27 03:58:16;;;;;;;6.93;1.52;;;11.40;99.90;;;;;;5016611;28;20057;-91
2024/03/27 04:00:41;;;;;;;2.13;1.55;;;11.40;99.90;;;;;;5031734;28;20483;-95
2024/03/27 04:03:07;;;;;;;2.95;1.50;;;11.40;99.90;;;;;;5034862;28;20037;-93
2024/03/27 04:05:33;;;;;;;1.85;1.50;;;11.40;99.90;;;;;;5022028;28;20110;-95
2024/03/27 04:07:58;;;;;;;2.35;1.52;;;11.40;99.90;;;;;;5002488;28;20366;-94
2024/03/27 04:10:24;;;;;;;3.83;1.70;;;11.40;99.90;;;;;;5004406;28;20029;-94
2024/03/27 04:12:49;;;;;;;2.40;1.60;;;11.40;99.90;;;;;;4998549;28;20049;-94
2024/03/27 04:15:15;;;;;;;2.63;1.67;;;11.40;99.90;;;;;;5000472;28;20152;-95
2024/03/27 04:17:41;;;;;;;2.53;1.60;;;11.40;99.90;;;;;;5002740;28;20069;-94
2024/03/27 04:20:10;;;;;;;1.55;1.45;;;12.10;99.90;;;;;;5015902;28;20086;-93
2024/03/27 04:22:36;;;;;;;5.88;3.10;;;11.40;99.90;;;;;;5008986;28;20022;-95
2024/03/27 04:25:03;;;;;;;3.70;2.40;;;11.30;99.90;;;;;;5002823;28;20110;-93
2024/03/27 04:27:29;;;;;;;4.45;2.25;;;11.00;99.90;;;;;;4996685;28;20080;-93
2024/03/27 04:29:56;;;;;;;5.22;2.80;;;10.80;99.90;;;;;;5011832;28;20034;-93
2024/03/27 04:32:22;;;;;;;2.97;2.67;;;10.60;99.90;;;;;;5016056;28;20038;-94
2024/03/27 04:34:47;;;;;;;8.65;2.72;;;10.40;99.90;;;;;;5016666;28;20037;-93
2024/03/27 04:37:13;;;;;;;7.60;3.20;;;10.20;99.90;;;;;;5017385;28;20029;-92
2024/03/27 04:39:39;;;;;;;5.40;3.17;;;10.20;99.90;;;;;;5018195;28;20022;-93
2024/03/27 04:42:05;;;;;;;3.67;3.38;;;10.10;99.90;;;;;;5026469;28;20022;-93
2024/03/27 04:44:31;;;;;;;5.50;2.50;;;10.00;99.90;;;;;;5023956;28;20026;-92
2024/03/27 04:46:56;;;;;;;4.47;2.90;;;9.90;99.90;;;;;;5026300;28;20355;-94
2024/03/27 04:49:22;;;;;;;4.90;2.42;;;9.90;99.90;;;;;;5037663;28;20020;-94
2024/03/27 04:51:48;;;;;;;5.00;2.00;;;9.90;99.90;;;;;;5028317;28;20034;-93
2024/03/27 04:54:13;;;;;;;4.70;1.90;;;9.80;99.90;;;;;;5026749;28;20028;-94
2024/03/27 04:56:39;;;;;;;7.90;3.10;;;9.80;99.90;;;;;;5050631;28;20022;-93
2024/03/27 04:59:04;;;;;;;6.63;2.90;;;9.70;99.90;;;;;;5048416;28;20029;-95
2024/03/27 05:01:30;;;;;;;6.55;3.38;;;9.80;99.90;;;;;;5049325;28;20028;-93
2024/03/27 05:03:56;;;;;;;9.80;3.78;;;9.70;99.90;;;;;;5049098;28;20025;-94
2024/03/27 05:06:21;;;;;;;11.32;6.05;;;9.60;99.90;;;;;;5043170;28;20048;-95
2024/03/27 05:08:47;;;;;;;13.55;6.82;;;9.50;99.90;;;;;;5036849;28;20094;-95
2024/03/27 05:11:12;;;;;;;11.50;7.32;;;9.50;99.90;;;;;;5014871;28;20038;-94
2024/03/27 05:13:40;;;;;;;10.63;8.07;;;9.40;99.90;;;;;;5021959;28;20061;-94
2024/03/27 05:16:06;;;;;;;16.52;8.07;;;9.40;99.90;;;;;;5025202;28;20026;-92
2024/03/27 05:18:32;;;;;;;17.98;10.30;;;9.40;99.90;;;;;;5007883;28;20030;-93
2024/03/27 05:20:57;;;;;;;17.02;9.50;;;9.40;99.90;;;;;;5034595;28;20030;-94
2024/03/27 05:23:23;;;;;;;12.80;9.90;;;9.40;99.90;;;;;;5033629;28;20422;-91
2024/03/27 05:25:48;;;;;;;16.40;9.75;;;9.50;99.90;;;;;;5023182;28;20053;-94
2024/03/27 05:28:14;;;;;;;17.15;8.15;;;9.50;99.90;;;;;;5017853;28;20049;-95
2024/03/27 05:30:40;;;;;;;11.38;8.43;;;9.50;99.90;;;;;;5021139;28;20331;-96
2024/03/27 05:33:07;;;;;;;11.30;8.40;;;9.50;99.90;;;;;;5003884;28;20117;-92
2024/03/27 05:35:33;;;;;;;9.57;7.80;;;9.40;99.90;;;;;;5008429;28;20026;-94
2024/03/27 05:37:58;;;;;;;10.20;7.57;;;10.10;99.90;;;;;;5016748;28;20029;-94
2024/03/27 05:40:24;;;;;;;14.38;7.85;;;10.90;99.90;;;;;;5021502;28;20030;-94
2024/03/27 05:42:50;;;;;;;12.93;7.90;;;10.00;99.90;;;;;;5027010;28;20030;-95
2024/03/27 05:45:16;;;;;;;17.23;8.77;;;10.30;99.90;;;;;;5021989;28;20382;-95
2024/03/27 05:47:42;;;;;;;14.82;9.23;;;9.60;99.90;;;;;;5034782;28;20101;-92
2024/03/27 05:50:09;;;;;;;16.10;9.00;;;11.10;99.90;;;;;;5034113;28;20025;-94
2024/03/27 05:52:35;;;;;;;11.27;8.50;;;9.40;99.90;;;;;;5030636;28;20064;-92
2024/03/27 05:55:02;;;;;;;18.65;8.68;;;10.70;99.90;;;;;;5001168;28;20034;-94
2024/03/27 05:57:29;;;;;;;13.35;9.20;;;10.60;99.90;;;;;;5012809;28;20087;-93
2024/03/27 05:59:54;;;;;;;21.23;11.02;;;9.60;99.90;;;;;;5029305;28;20077;-93
2024/03/27 06:02:20;;;;;;;14.73;10.13;;;10.80;99.90;;;;;;5030087;28;20030;-94
2024/03/27 06:04:45;;;;;;;18.55;10.38;;;9.80;99.90;;;;;;5014852;28;20028;-93
2024/03/27 06:07:11;;;;;;;19.00;10.45;;;10.90;99.90;;;;;;5022166;28;20053;-94
2024/03/27 06:09:38;;;;;;;14.20;10.73;;;10.50;99.90;;;;;;5027340;28;20370;-94
2024/03/27 06:12:05;;;;;;;14.43;9.90;;;10.50;99.90;;;;;;5016585;28;20049;-93
2024/03/27 06:14:30;;;;;;;17.58;10.27;;;9.80;99.90;;;;;;5013683;28;20421;-92
2024/03/27 06:16:56;;;;;;;14.85;9.18;;;9.60;99.90;;;;;;5006310;28;20034;-91
2024/03/27 06:19:21;;;;;;;10.23;8.20;;;10.90;99.90;;;;;;5013836;28;20034;-93
2024/03/27 06:21:47;;;;;;;17.00;10.23;;;9.80;99.90;;;;;;5031345;28;20264;-91
2024/03/27 06:24:12;;;;;;;10.68;8.90;;;9.80;99.90;;;;;;5033007;28;20068;-91
2024/03/27 06:26:38;;;;;;;10.82;8.95;;;9.80;99.90;;;;;;5016792;28;20085;-91
2024/03/27 06:29:03;;;;;;;14.88;8.98;;;9.80;99.90;;;;;;5018897;28;20028;-92
2024/03/27 06:31:29;;;;;;;15.23;9.65;;;9.70;99.90;;;;;;5014341;28;20591;-92
2024/03/27 06:33:55;;;;;;;8.90;7.85;;;9.70;99.90;;;;;;5014869;28;20037;-92
2024/03/27 06:36:21;;;;;;;10.38;7.38;;;9.70;99.90;;;;;;5015683;28;20022;-93
2024/03/27 06:38:49;;;;;;;10.15;7.00;;;9.70;99.90;;;;;;5011707;28;20029;-91
2024/03/27 06:41:14;;;;;;;6.93;6.13;;;9.80;99.90;;;;;;5010012;28;20429;-92
2024/03/27 06:43:40;;;;;;;5.82;5.00;;;9.80;99.90;;;;;;5017839;28;20029;-93
2024/03/27 06:46:05;;;;;;;6.13;4.72;;;9.70;99.90;;;;;;5018226;28;20026;-91
2024/03/27 06:48:43;;;;;;;5.68;3.90;;;9.70;99.90;;;;;;5019678;28;20052;-93
2024/03/27 06:51:09;;;;;;;4.38;3.13;;;9.70;99.90;;;;;;5005691;28;20042;-92
2024/03/27 06:53:35;;;;;;;4.90;4.18;;;9.70;99.90;;;;;;5013728;28;20030;-91
2024/03/27 06:56:05;;;;;;;6.20;3.13;;;9.60;99.90;;;;;;5017399;28;20105;-91
2024/03/27 06:58:31;;;;;;;8.68;2.80;;;9.60;99.90;;;;;;5013224;28;20029;-91
2024/03/27 07:00:58;;;;;;;4.55;3.17;;;9.70;99.90;;;;;;5020810;28;20033;-91
2024/03/27 07:03:23;;;;;;;11.07;3.40;;;9.70;99.90;;;;;;5023214;28;20034;-91
2024/03/27 07:05:49;;;;;;;5.28;3.60;;;9.70;99.90;;;;;;5005865;28;20054;-90
2024/03/27 07:08:14;;;;;;;10.20;4.50;;;9.60;99.90;;;;;;5014891;28;20521;-94
2024/03/27 07:10:40;;;;;;;9.77;3.97;;;9.60;99.90;;;;;;5007690;28;20065;-94
2024/03/27 07:13:06;;;;;;;4.07;3.63;;;9.60;99.90;;;;;;5010663;28;20056;-93
2024/03/27 07:15:31;;;;;;;7.80;3.70;;;9.60;99.90;;;;;;5008639;28;20085;-93
2024/03/27 07:17:57;;;;;;;5.30;4.00;;;10.60;99.90;;;;;;5013990;28;20055;-93
2024/03/27 07:20:23;;;;;;;4.82;3.90;;;9.50;99.90;;;;;;5009099;28;20030;-93
2024/03/27 07:22:48;;;;;;;6.45;4.00;;;9.40;99.90;;;;;;5009601;28;20026;-92
2024/03/27 07:25:14;;;;;;;5.72;3.83;;;9.60;99.90;;;;;;5014627;28;20029;-93
2024/03/27 07:27:39;;;;;;;8.23;5.00;;;9.70;99.90;;;;;;5007442;28;20030;-92
2024/03/27 07:30:06;;;;;;;7.25;4.15;;;9.70;99.90;;;;;;5026787;28;20029;-92
2024/03/27 07:32:32;;;;;;;5.35;4.22;;;9.80;99.90;;;;;;5017131;28;20058;-92
2024/03/27 07:34:57;;;;;;;10.60;4.82;;;9.80;99.90;;;;;;5009405;28;20029;-92
2024/03/27 07:37:23;;;;;;;7.22;4.95;;;9.80;99.90;;;;;;5015433;28;20018;-92
2024/03/27 07:39:48;;;;;;;8.65;5.03;;;9.50;99.90;;;;;;5014408;28;20058;-92
2024/03/27 07:42:14;;;;;;;6.80;4.65;;;9.90;99.90;;;;;;5015354;28;20028;-91
2024/03/27 07:44:40;;;;;;;9.65;5.10;;;9.90;99.90;;;;;;4999393;28;20022;-93
2024/03/27 07:47:05;;;;;;;11.80;6.35;;;9.90;99.90;;;;;;5009157;28;20132;-92
2024/03/27 07:49:31;;;;;;;7.60;5.32;;;10.70;99.90;;;;;;5009974;28;20454;-92
2024/03/27 07:51:56;;;;;;;7.35;5.57;;;9.90;99.90;;;;;;5008249;28;20060;-92
2024/03/27 07:54:24;;;;;;;6.43;5.80;;;11.00;99.90;;;;;;5019397;28;20105;-92
2024/03/27 07:57:04;;;;;;;6.80;5.40;;;9.90;99.90;;;;;;5021290;28;20026;-93
2024/03/27 07:59:29;;;;;;;9.88;6.53;;;9.90;99.90;;;;;;5003455;28;20037;-92
2024/03/27 08:01:55;;;;;;;9.85;4.82;;;9.90;99.90;;;;;;5015853;28;20625;-93
2024/03/27 08:04:20;;;;;;;8.70;5.18;;;9.90;99.90;;;;;;5023779;28;20092;-92
2024/03/27 08:06:46;;;;;;;7.30;5.30;;;9.90;99.90;;;;;;5015805;28;20026;-92
2024/03/27 08:09:11;;;;;;;7.72;5.00;;;10.40;99.90;;;;;;5017487;28;20030;-92
2024/03/27 08:11:37;;;;;;;7.90;6.03;;;9.90;99.90;;;;;;5016380;28;20104;-92
2024/03/27 08:14:06;;;;;;;8.40;5.47;;;9.90;99.90;;;;;;5001842;28;20105;-93
2024/03/27 08:16:31;;;;;;;11.75;5.20;;;9.90;99.90;;;;;;5019365;28;20029;-92
2024/03/27 08:18:57;;;;;;;8.30;6.30;;;9.90;99.90;;;;;;5016548;28;20029;-92
2024/03/27 08:21:22;;;;;;;9.88;6.07;;;10.00;99.90;;;;;;5020001;28;20029;-93
2024/03/27 08:23:49;;;;;;;8.50;7.40;;;10.00;99.90;;;;;;5020701;28;20030;-95
2024/03/27 08:26:14;;;;;;;9.75;6.70;;;10.00;99.90;;;;;;5021155;28;20080;-92
2024/03/27 08:28:40;;;;;;;7.70;6.97;;;10.00;99.90;;;;;;5015696;28;20034;-91
2024/03/27 08:31:06;;;;;;;10.73;9.02;;;10.00;99.90;;;;;;5029065;28;20032;-91
2024/03/27 08:33:32;;;;;;;9.05;8.15;;;9.50;99.90;;;;;;5044366;28;20040;-94
2024/03/27 08:36:01;;;;;;;8.77;6.63;;;10.40;99.90;;;;;;5036823;28;20065;-93
2024/03/27 08:38:27;;;;;;;10.13;7.20;;;11.20;99.90;;;;;;5018783;28;20026;-94
2024/03/27 08:40:52;;;;;;;7.00;6.28;;;10.30;99.90;;;;;;5004293;28;20159;-96
2024/03/27 08:43:18;;;;;;;6.78;6.18;;;11.50;99.90;;;;;;5015483;28;20687;-94
2024/03/27 08:45:47;;;;;;;11.10;6.82;;;11.40;99.90;;;;;;5004894;28;20033;-93
2024/03/27 08:48:13;;;;;;;6.78;6.10;;;9.30;99.90;;;;;;5015748;28;20010;-93
2024/03/27 08:50:39;;;;;;;7.57;5.60;;;11.30;99.90;;;;;;5026508;28;20084;-89
2024/03/27 08:53:05;;;;;;;5.97;5.38;;;9.90;99.90;;;;;;5032299;28;20030;-92
2024/03/27 08:55:32;;;;;;;5.72;5.22;;;10.10;99.90;;;;;;5017268;28;20084;-92
2024/03/27 08:57:58;;;;;;;6.05;5.45;;;11.70;99.90;;;;;;5015510;28;20141;-94
2024/03/27 09:00:23;;;;;;;8.10;5.30;;;9.90;99.90;;;;;;5005035;28;20062;-92
2024/03/27 09:02:49;;;;;;;8.32;4.93;;;10.20;99.90;;;;;;5003100;28;20030;-93
2024/03/27 09:05:18;;;;;;;6.05;5.00;;;10.20;99.90;;;;;;5005914;28;20022;-89
2024/03/27 09:07:45;;;;;;;7.38;5.25;;;10.10;99.90;;;;;;4997411;28;20099;-86
2024/03/27 09:10:15;;;;;;;8.48;4.38;;;10.30;99.90;;;;;;5000814;28;20030;-94
2024/03/27 09:12:59;;;;;;;8.48;4.00;;;10.40;99.90;;;;;;5000971;28;20041;-95
2024/03/27 09:15:25;;;;;;;5.80;4.57;;;9.40;99.90;;;;;;5020535;28;20009;-93
2024/03/27 09:17:53;;;;;;;5.07;3.58;;;11.40;99.90;;;;;;5051531;28;20025;-95
2024/03/27 09:20:19;;;;;;;8.02;3.55;;;9.10;99.90;;;;;;5044389;28;20033;-95
2024/03/27 09:22:45;;;;;;;4.05;3.03;;;10.50;99.90;;;;;;5042935;28;20457;-95
2024/03/27 09:25:19;;;;;;;2.95;2.60;;;9.10;99.90;;;;;;5025714;28;20033;-94
2024/03/27 09:28:00;;;;;;;3.40;2.50;;;10.30;99.90;;;;;;5020797;28;20026;-93
2024/03/27 09:30:27;;;;;;;3.22;2.92;;;10.10;99.90;;;;;;5004257;28;20054;-94
2024/03/27 09:32:53;;;;;;;3.47;2.70;;;11.50;99.90;;;;;;5023129;28;20045;-94
2024/03/27 09:35:25;;;;;;;3.85;2.80;;;11.60;99.90;;;;;;5028794;28;20026;-95
2024/03/27 09:37:50;;;;;;;8.85;3.17;;;10.30;99.90;;;;;;5010399;28;20054;-94
2024/03/27 09:40:16;;;;;;;5.68;2.90;;;10.70;99.90;;;;;;5015342;28;20034;-94
2024/03/27 09:42:43;;;;;;;6.32;2.60;;;10.30;99.90;;;;;;5032933;28;20017;-94
2024/03/27 09:45:10;;;;;;;5.63;2.65;;;10.40;99.90;;;;;;5029846;28;20034;-95
2024/03/27 09:47:39;;;;;;;2.60;2.13;;;10.40;99.90;;;;;;5018038;28;20034;-94
2024/03/27 09:50:11;;;;;;;3.97;2.67;;;10.60;99.90;;;;;;5017596;28;20018;-95
2024/03/27 09:52:37;;;;;;;6.82;2.50;;;10.50;99.90;;;;;;5019717;28;20045;-95
2024/03/27 09:55:10;;;;;;;2.75;2.38;;;10.40;99.90;;;;;;5023603;28;20087;-94
2024/03/27 09:57:36;;;;;;;6.47;2.47;;;10.50;99.90;;;;;;5036226;28;20381;-94
2024/03/27 10:00:02;;;;;;;2.65;2.42;;;10.80;99.90;;;;;;5015895;28;20029;-94
2024/03/27 10:02:28;;;;;;;2.28;1.85;;;10.50;99.90;;;;;;5013258;28;20461;-95
2024/03/27 10:05:05;;;;;;;4.00;2.40;;;10.80;99.90;;;;;;5038764;28;20052;-95
2024/03/27 10:07:31;;;;;;;2.55;1.80;;;11.20;99.90;;;;;;5039692;28;20026;-93
2024/03/27 10:09:58;;;;;;;2.78;1.77;;;10.80;99.90;;;;;;5041181;28;20029;-93
2024/03/27 10:12:25;;;;;;;3.03;1.75;;;11.80;99.90;;;;;;5047437;28;20053;-94
2024/03/27 10:14:51;;;;;;;3.28;2.03;;;11.10;99.90;;;;;;5041308;28;20046;-95
2024/03/27 10:17:17;;;;;;;4.93;1.77;;;11.20;99.90;;;;;;5044681;28;20029;-94
2024/03/27 10:19:42;;;;;;;2.22;1.83;;;10.50;99.90;;;;;;5026979;28;20018;-95
2024/03/27 10:22:54;;;;;;;3.97;2.35;;;11.90;99.90;;;;;;5015418;28;20052;-94
2024/03/27 10:25:28;;;;;;;8.85;2.13;;;10.80;99.90;;;;;;5020728;28;20065;-95
2024/03/27 10:27:54;;;;;;;4.40;1.95;;;11.70;99.90;;;;;;5020668;28;20030;-95
2024/03/27 10:30:21;;;;;;;2.00;1.90;;;12.30;99.90;;;;;;5021228;28;20537;-95
2024/03/27 10:32:47;;;;;;;3.95;2.00;;;10.70;99.90;;;;;;5020336;28;20071;-95
2024/03/27 10:35:14;;;;;;;3.85;1.83;;;11.90;99.90;;;;;;5024851;28;20026;-95
2024/03/27 10:37:51;;;;;;;4.18;2.30;;;10.90;99.90;;;;;;5036039;28;20465;-94
2024/03/27 10:40:22;;;;;;;4.28;2.30;;;11.60;99.90;;;;;;5024846;28;20076;-95
2024/03/27 10:43:02;;;;;;;2.78;2.08;;;11.40;99.90;;;;;;5010045;28;20042;-94
2024/03/27 10:45:30;;;;;;;2.15;1.83;;;11.00;99.90;;;;;;5019874;28;20029;-95
2024/03/27 10:47:57;;;;;;;2.40;2.10;;;12.00;99.90;;;;;;5022366;28;20033;-95
2024/03/27 10:50:31;;;;;;;4.45;2.22;;;11.50;99.90;;;;;;5023083;28;20045;-94
2024/03/27 10:53:13;;;;;;;1.95;1.63;;;10.90;99.90;;;;;;5020540;28;20044;-94
2024/03/27 10:55:40;;;;;;;2.53;2.10;;;12.40;99.90;;;;;;5018636;28;20021;-94
2024/03/27 10:58:13;;;;;;;4.85;2.65;;;10.80;99.90;;;;;;5021220;28;20026;-95
2024/03/27 11:00:40;;;;;;;2.63;2.10;;;10.90;99.90;;;;;;5021470;28;20125;-95
2024/03/27 11:03:08;;;;;;;4.88;2.50;;;11.80;99.90;;;;;;5038711;23;20022;-94
2024/03/27 11:05:34;;;;;;;3.92;2.70;;;12.40;99.90;;;;;;5002534;28;20046;-95
2024/03/27 11:08:21;;;;;;;4.75;2.15;;;11.90;99.90;;;;;;4998361;28;20031;-94
2024/03/27 11:10:47;;;;;;;5.20;2.33;;;11.10;99.90;;;;;;4989165;28;20505;-94
2024/03/27 11:13:12;;;;;;;4.80;2.60;;;10.70;99.90;;;;;;5001898;28;20034;-94
2024/03/27 11:15:54;;;;;;;5.80;2.78;;;11.00;99.90;;;;;;5001693;28;20033;-95
2024/03/27 11:18:19;;;;;;;7.72;3.20;;;11.10;99.90;;;;;;5011123;28;20030;-94
2024/03/27 11:20:55;;;;;;;3.72;3.05;;;11.90;99.90;;;;;;5006230;28;20083;-94
2024/03/27 11:23:45;;;;;;;3.25;2.85;;;10.80;99.90;;;;;;5000171;28;20030;-93
2024/03/27 11:26:11;;;;;;;4.22;3.40;;;11.00;99.90;;;;;;5000675;28;20039;-94
2024/03/27 11:28:37;;;;;;;5.70;2.85;;;10.90;99.90;;;;;;5004896;28;20010;-94
2024/03/27 11:33:52;;;;;;;5.85;3.40;;;11.00;99.90;;;;;;5013405;28;20053;-95
2024/03/27 11:36:48;;;;;;;4.07;3.67;;;11.60;99.90;;;;;;4999923;28;20042;-96
2024/03/27 11:39:27;;;;;;;5.25;3.05;;;11.50;99.90;;;;;;4997698;28;20473;-94
2024/03/27 11:41:53;;;;;;;4.15;3.42;;;11.20;99.90;;;;;;5003351;28;20078;-94
2024/03/27 11:44:46;;;;;;;4.43;3.80;;;11.40;99.90;;;;;;5003966;28;20026;-93
2024/03/27 11:47:11;;;;;;;5.13;3.53;;;10.10;99.90;;;;;;5016372;28;20049;-95
2024/03/27 11:49:40;;;;;;;6.65;3.80;;;10.90;99.90;;;;;;5019942;28;20397;-95
2024/03/27 11:52:09;;;;;;;4.18;3.78;;;12.40;99.90;;;;;;5021897;28;20026;-96
2024/03/27 11:54:35;;;;;;;4.25;3.80;;;11.60;99.90;;;;;;5017812;28;20037;-94
2024/03/27 11:57:01;;;;;;;6.28;4.35;;;11.60;99.90;;;;;;5006717;28;20022;-95
2024/03/27 11:59:27;;;;;;;4.45;4.05;;;13.00;99.90;;;;;;5021801;28;20026;-95
2024/03/27 12:02:04;;;;;;;4.70;3.70;;;11.90;99.90;;;;;;5023364;28;20029;-95
2024/03/27 12:04:30;;;;;;;5.65;3.63;;;11.80;99.90;;;;;;5020684;28;20120;-94
2024/03/27 12:07:02;;;;;;;7.45;4.00;;;12.10;99.90;;;;;;5021990;28;20033;-95
2024/03/27 12:09:27;;;;;;;6.03;3.78;;;11.10;99.90;;;;;;5024440;28;20026;-94
2024/03/27 12:11:58;;;;;;;6.10;4.03;;;13.40;99.90;;;;;;5026212;28;20065;-96
2024/03/27 12:14:25;;;;;;;5.00;4.57;;;12.40;99.90;;;;;;5031921;28;20052;-95
2024/03/27 12:16:51;;;;;;;8.02;3.97;;;11.20;99.90;;;;;;5023279;28;20026;-95
2024/03/27 12:19:17;;;;;;;6.03;4.00;;;11.80;99.90;;;;;;5019534;28;20410;-94
2024/03/27 12:21:50;;;;;;;5.85;4.30;;;13.00;99.90;;;;;;5022593;28;20105;-94
2024/03/27 12:24:16;;;;;;;5.28;3.45;;;12.40;99.90;;;;;;5034156;28;20037;-95
2024/03/27 12:26:42;;;;;;;4.55;3.80;;;10.40;99.90;;;;;;5021903;28;20026;-95
2024/03/27 12:29:09;;;;;;;4.10;3.63;;;13.50;99.90;;;;;;5020357;28;20029;-94
2024/03/27 12:31:34;;;;;;;5.80;3.53;;;13.80;99.90;;;;;;5023238;28;20097;-94
2024/03/27 12:34:14;;;;;;;3.53;3.22;;;13.20;99.90;;;;;;5123936;27;20940;-94
2024/03/27 12:36:40;;;;;;;7.97;3.90;;;12.70;99.90;;;;;;5122512;28;20024;-95
2024/03/27 12:39:06;;;;;;;4.90;4.20;;;12.40;99.90;;;;;;5127632;28;20092;-94
2024/03/27 12:41:32;;;;;;;5.32;4.20;;;13.00;99.90;;;;;;5099803;28;20086;-95
2024/03/27 12:43:58;;;;;;;3.67;3.28;;;12.00;99.90;;;;;;5098575;28;20035;-95
2024/03/27 12:46:24;;;;;;;5.53;3.70;;;12.50;99.90;;;;;;5095816;28;20084;-95
2024/03/27 12:48:50;;;;;;;5.35;3.53;;;12.10;99.90;;;;;;5101014;28;20034;-95
2024/03/27 12:51:16;;;;;;;3.13;2.92;;;13.20;99.90;;;;;;5105787;28;20502;-94
2024/03/27 12:53:42;;;;;;;5.85;3.78;;;11.90;99.90;;;;;;5095456;28;20048;-95